»·PEaware :: FLA91 KRDD-KPSC

FLA91 :: KRDD-KPSC

FLIGHT INFORMATION

Flight Status: Arrived
Operator: Unknown
More flights by this operator :: More flights under this callsign
Pilot: Anonymous 36068 (36068)
Aircraft: BEECH AIRCRAFT PREMIER
(PRM1)
More flights by this aircraft type
Origin: KRDD Redding Mun
United States
Destination: KPSC Tri-Cities
United States
More flights between these airports :: More routes between these airports
Route: SHA4 RDD LMT IMB PDT CORDO
File this flight plan on PilotEdge
Remarks: (KRDD - A29.94, KPSC - A30.32) INFORMATION ZULU - 03005KT 6 OVC 6SM
Altitude:
(Current/Filed)
33,000ft
Speed:
(Current/Filed)
400kts
Departed: 20-Sep-21 08:12 PM
Arrived: 20-Sep-21 09:26 PM
Distance/Time
Traveled:
372nm/1:14
Distance/Time
To Go:
Arrived

Flight Plot

Page will automatically refresh every two minutes.

Flight plan parsing failed; only flown route is shown


Map Options




Map Legend


Flown Route
Filed Route
Departure Airport
Arrival Airport
Navaid (VOR, NDB)
Fix

Horizontal Profiles

Position Reports

Time Latitude Longitude Heading Altitude Ground
Speed
20-Sep-21 19:57 40.503834 -122.299062 137 496ft 0kts
20-Sep-21 19:58 40.503834 -122.299062 137 496ft 0kts
20-Sep-21 19:59 40.503834 -122.299062 137 496ft 0kts
20-Sep-21 20:00 40.503834 -122.299062 137 496ft 0kts
20-Sep-21 20:01 40.503834 -122.299062 137 496ft 0kts
20-Sep-21 20:02 40.503834 -122.299062 137 496ft 0kts
20-Sep-21 20:03 40.503834 -122.299062 137 496ft 0kts
20-Sep-21 20:04 40.503834 -122.299062 137 496ft 0kts
20-Sep-21 20:05 40.503834 -122.299062 137 496ft 0kts
20-Sep-21 20:06 40.503834 -122.299062 137 496ft 0kts
20-Sep-21 20:07 40.503834 -122.299062 137 496ft 0kts
20-Sep-21 20:08 40.503608 -122.298455 102 496ft 5kts
20-Sep-21 20:08 40.502239 -122.296369 137 495ft 6kts
20-Sep-21 20:09 40.501976 -122.296037 135 494ft 0kts
20-Sep-21 20:11 40.501836 -122.295860 136 494ft 4kts
20-Sep-21 20:11 40.506286 -122.294872 359 496ft 104kts
20-Sep-21 20:12 40.551623 -122.283857 37 2253ft 198kts
20-Sep-21 20:14 40.616620 -122.283905 356 5219ft 208kts
20-Sep-21 20:15 40.673661 -122.285356 0 7709ft 204kts
20-Sep-21 20:16 40.730096 -122.286509 0 10223ft 216kts
20-Sep-21 20:17 40.791415 -122.273749 44 12798ft 243kts
20-Sep-21 20:17 40.832986 -122.220062 44 14895ft 259kts
20-Sep-21 20:18 40.891089 -122.164560 15 17408ft 267kts
20-Sep-21 20:19 40.963065 -122.140022 14 19802ft 270kts
20-Sep-21 20:20 41.036957 -122.114878 14 21805ft 279kts
20-Sep-21 20:21 41.112501 -122.089104 14 23802ft 281kts
20-Sep-21 20:22 41.187634 -122.063396 14 25792ft 276kts
20-Sep-21 20:23 41.260500 -122.038418 14 27677ft 268kts
20-Sep-21 20:24 41.334072 -122.013113 14 28984ft 278kts
20-Sep-21 20:25 41.409419 -121.987170 14 30286ft 282kts
20-Sep-21 20:26 41.485410 -121.960906 14 31572ft 283kts
20-Sep-21 20:27 41.562454 -121.934234 14 32571ft 290kts
20-Sep-21 20:28 41.642887 -121.906318 14 33025ft 315kts
20-Sep-21 20:29 41.732659 -121.875075 14 33024ft 351kts
20-Sep-21 20:30 41.831103 -121.840715 14 33022ft 379kts
20-Sep-21 20:31 41.936034 -121.803960 14 33021ft 401kts
20-Sep-21 20:32 42.046350 -121.765180 14 33020ft 417kts
20-Sep-21 20:33 42.157458 -121.720754 25 33036ft 416kts
20-Sep-21 20:34 42.258614 -121.646133 29 33018ft 415kts
20-Sep-21 20:35 42.358420 -121.568833 29 33018ft 414kts
20-Sep-21 20:36 42.458269 -121.491211 29 33018ft 413kts
20-Sep-21 20:37 42.557433 -121.413828 29 33018ft 413kts
20-Sep-21 20:38 42.656944 -121.335879 30 33018ft 412kts
20-Sep-21 20:39 42.756112 -121.257931 30 33018ft 412kts
20-Sep-21 20:40 42.855298 -121.179673 30 33018ft 412kts
20-Sep-21 20:41 42.954704 -121.100918 30 33018ft 412kts
20-Sep-21 20:42 43.053796 -121.022144 30 33018ft 412kts
20-Sep-21 20:43 43.152781 -120.943153 30 33018ft 412kts
20-Sep-21 20:44 43.251440 -120.864109 30 33018ft 413kts
20-Sep-21 20:45 43.350643 -120.784334 30 33018ft 413kts
20-Sep-21 20:46 43.449414 -120.704615 30 33018ft 413kts
20-Sep-21 20:47 43.548172 -120.624595 30 33018ft 413kts
20-Sep-21 20:48 43.647074 -120.544139 30 33018ft 413kts
20-Sep-21 20:49 43.745854 -120.463477 30 33018ft 413kts
20-Sep-21 20:50 43.844609 -120.382513 30 33018ft 413kts
20-Sep-21 20:51 43.943080 -120.301480 30 33018ft 413kts
20-Sep-21 20:52 44.041821 -120.219900 30 33018ft 413kts
20-Sep-21 20:53 44.112195 -120.161550 30 33072ft 411kts
20-Sep-21 20:54 44.208831 -120.081185 30 33384ft 406kts
20-Sep-21 20:55 44.306096 -119.999969 30 33384ft 409kts
20-Sep-21 20:56 44.404058 -119.917858 30 33189ft 415kts
20-Sep-21 20:57 44.504460 -119.833370 30 31352ft 427kts
20-Sep-21 20:58 44.606401 -119.747224 30 29352ft 427kts
20-Sep-21 20:59 44.708501 -119.668245 27 27343ft 414kts
20-Sep-21 21:00 44.809996 -119.594755 27 25342ft 413kts
20-Sep-21 21:01 44.910735 -119.521522 26 24380ft 392kts
20-Sep-21 21:02 45.005496 -119.452377 27 24382ft 378kts
20-Sep-21 21:03 45.098083 -119.384572 27 24383ft 372kts
20-Sep-21 21:04 45.189423 -119.317432 27 24384ft 368kts
20-Sep-21 21:05 45.282684 -119.248594 27 21895ft 380kts
20-Sep-21 21:06 45.373829 -119.181147 27 18868ft 346kts
20-Sep-21 21:07 45.453796 -119.121715 27 15849ft 311kts
20-Sep-21 21:08 45.534039 -119.121979 348 12859ft 293kts
20-Sep-21 21:09 45.609482 -119.145795 348 10993ft 244kts
20-Sep-21 21:10 45.667888 -119.164328 348 10217ft 211kts
20-Sep-21 21:11 45.725754 -119.182523 348 7948ft 221kts
20-Sep-21 21:12 45.786740 -119.197528 2 5356ft 225kts
20-Sep-21 21:13 45.845403 -119.182604 1 3500ft 188kts
20-Sep-21 21:14 45.890357 -119.188829 353 3495ft 151kts
20-Sep-21 21:15 45.932498 -119.196966 353 3499ft 154kts
20-Sep-21 21:16 45.975046 -119.205227 353 3500ft 154kts
20-Sep-21 21:17 46.017702 -119.213513 353 3499ft 155kts
20-Sep-21 21:18 46.060506 -119.222820 350 3499ft 156kts
20-Sep-21 21:19 46.103004 -119.236251 348 3536ft 152kts
20-Sep-21 21:20 46.144602 -119.243978 357 2746ft 136kts
20-Sep-21 21:21 46.179046 -119.240803 25 2411ft 118kts
20-Sep-21 21:22 46.207928 -119.204348 45 1753ft 133kts
20-Sep-21 21:23 46.231777 -119.169223 45 1101ft 112kts
20-Sep-21 21:24 46.252949 -119.137935 46 534ft 108kts
20-Sep-21 21:25 46.265305 -119.118628 133 407ft 10kts
20-Sep-21 21:26 46.263882 -119.116640 135 407ft 19kts
20-Sep-21 21:27 46.261085 -119.114317 200 404ft 5kts
20-Sep-21 21:28 46.260566 -119.114926 221 404ft 0kts

Navigation Log

Ident Type
Flight plan parsing failed, navigation log unavailable